sensor_id;sensor_type;location;lat;lon;timestamp;temperature;humidity
42479;DHT22;28110;47.080;9.476;2023-01-25T00:01:43;-2.20;99.90
42479;DHT22;28110;47.080;9.476;2023-01-25T00:04:09;-2.20;99.90
42479;DHT22;28110;47.080;9.476;2023-01-25T00:06:35;-2.20;99.90
42479;DHT22;28110;47.080;9.476;2023-01-25T00:09:01;-2.20;99.90
42479;DHT22;28110;47.080;9.476;2023-01-25T00:11:27;-2.30;99.90
42479;DHT22;28110;47.080;9.476;2023-01-25T00:13:53;-2.20;99.90
42479;DHT22;28110;47.080;9.476;2023-01-25T00:16:18;-2.20;99.90
42479;DHT22;28110;47.080;9.476;2023-01-25T00:18:44;-2.20;99.90
42479;DHT22;28110;47.080;9.476;2023-01-25T00:21:17;-2.30;99.90
42479;DHT22;28110;47.080;9.476;2023-01-25T00:23:42;-2.20;99.90
42479;DHT22;28110;47.080;9.476;2023-01-25T00:26:08;-2.20;99.90
42479;DHT22;28110;47.080;9.476;2023-01-25T00:28:34;-2.20;99.90
42479;DHT22;28110;47.080;9.476;2023-01-25T00:31:01;-2.20;99.90
42479;DHT22;28110;47.080;9.476;2023-01-25T00:33:49;-2.30;99.90
42479;DHT22;28110;47.080;9.476;2023-01-25T00:39:01;-2.30;99.90
42479;DHT22;28110;47.080;9.476;2023-01-25T00:41:26;-2.20;99.90
42479;DHT22;28110;47.080;9.476;2023-01-25T00:43:52;-2.30;99.90
42479;DHT22;28110;47.080;9.476;2023-01-25T00:46:18;-2.20;99.90
42479;DHT22;28110;47.080;9.476;2023-01-25T00:48:43;-2.20;99.90
42479;DHT22;28110;47.080;9.476;2023-01-25T00:51:09;-2.20;99.90
42479;DHT22;28110;47.080;9.476;2023-01-25T00:53:35;-2.20;99.90
42479;DHT22;28110;47.080;9.476;2023-01-25T00:56:01;-2.20;99.90
42479;DHT22;28110;47.080;9.476;2023-01-25T00:58:26;-2.30;99.90
42479;DHT22;28110;47.080;9.476;2023-01-25T01:00:53;-2.30;99.90
42479;DHT22;28110;47.080;9.476;2023-01-25T01:03:18;-2.30;99.90
42479;DHT22;28110;47.080;9.476;2023-01-25T01:05:44;-2.30;99.90
42479;DHT22;28110;47.080;9.476;2023-01-25T01:08:11;-2.20;99.90
42479;DHT22;28110;47.080;9.476;2023-01-25T01:10:37;-2.30;99.90
42479;DHT22;28110;47.080;9.476;2023-01-25T01:13:02;-2.20;99.90
42479;DHT22;28110;47.080;9.476;2023-01-25T01:15:28;-2.20;99.90
42479;DHT22;28110;47.080;9.476;2023-01-25T01:17:53;-2.20;99.90
42479;DHT22;28110;47.080;9.476;2023-01-25T01:20:19;-2.20;99.90
42479;DHT22;28110;47.080;9.476;2023-01-25T01:22:45;-2.20;99.90
42479;DHT22;28110;47.080;9.476;2023-01-25T01:25:10;-2.20;99.90
42479;DHT22;28110;47.080;9.476;2023-01-25T01:27:37;-2.20;99.90
42479;DHT22;28110;47.080;9.476;2023-01-25T01:30:03;-2.20;99.90
42479;DHT22;28110;47.080;9.476;2023-01-25T01:32:29;-2.20;99.90
42479;DHT22;28110;47.080;9.476;2023-01-25T01:34:54;-2.20;99.90
42479;DHT22;28110;47.080;9.476;2023-01-25T01:37:20;-2.20;99.90
42479;DHT22;28110;47.080;9.476;2023-01-25T01:39:45;-2.20;99.90
42479;DHT22;28110;47.080;9.476;2023-01-25T01:42:11;-2.20;99.90
42479;DHT22;28110;47.080;9.476;2023-01-25T01:44:51;-2.20;99.90
42479;DHT22;28110;47.080;9.476;2023-01-25T01:50:07;-2.30;99.90
42479;DHT22;28110;47.080;9.476;2023-01-25T01:52:37;-2.30;99.90
42479;DHT22;28110;47.080;9.476;2023-01-25T01:55:10;-2.30;99.90
42479;DHT22;28110;47.080;9.476;2023-01-25T01:57:42;-2.30;99.90
42479;DHT22;28110;47.080;9.476;2023-01-25T02:00:16;-2.30;99.90
42479;DHT22;28110;47.080;9.476;2023-01-25T02:02:43;-2.30;99.90
42479;DHT22;28110;47.080;9.476;2023-01-25T02:05:29;-2.30;99.90
42479;DHT22;28110;47.080;9.476;2023-01-25T02:07:56;-2.40;99.90
42479;DHT22;28110;47.080;9.476;2023-01-25T02:10:23;-2.40;99.90
42479;DHT22;28110;47.080;9.476;2023-01-25T02:12:51;-2.50;99.90
42479;DHT22;28110;47.080;9.476;2023-01-25T02:15:18;-2.50;99.90
42479;DHT22;28110;47.080;9.476;2023-01-25T02:17:44;-2.50;99.90
42479;DHT22;28110;47.080;9.476;2023-01-25T02:20:32;-2.50;99.90
42479;DHT22;28110;47.080;9.476;2023-01-25T02:25:40;-2.50;99.90
42479;DHT22;28110;47.080;9.476;2023-01-25T02:30:45;-2.50;99.90
42479;DHT22;28110;47.080;9.476;2023-01-25T02:33:10;-2.50;99.90
42479;DHT22;28110;47.080;9.476;2023-01-25T02:36:00;-2.50;99.90
42479;DHT22;28110;47.080;9.476;2023-01-25T02:38:32;-2.50;99.90
42479;DHT22;28110;47.080;9.476;2023-01-25T02:41:15;-2.50;99.90
42479;DHT22;28110;47.080;9.476;2023-01-25T02:43:41;-2.50;99.90
42479;DHT22;28110;47.080;9.476;2023-01-25T02:48:44;-2.60;99.90
42479;DHT22;28110;47.080;9.476;2023-01-25T02:51:10;-2.60;99.90
42479;DHT22;28110;47.080;9.476;2023-01-25T02:53:36;-2.60;99.90
42479;DHT22;28110;47.080;9.476;2023-01-25T02:56:02;-2.60;99.90
42479;DHT22;28110;47.080;9.476;2023-01-25T02:58:28;-2.60;99.90
42479;DHT22;28110;47.080;9.476;2023-01-25T03:00:54;-2.60;99.90
42479;DHT22;28110;47.080;9.476;2023-01-25T03:03:19;-2.60;99.90
42479;DHT22;28110;47.080;9.476;2023-01-25T03:05:45;-2.60;99.90
42479;DHT22;28110;47.080;9.476;2023-01-25T03:08:11;-2.60;99.90
42479;DHT22;28110;47.080;9.476;2023-01-25T03:10:36;-2.70;99.90
42479;DHT22;28110;47.080;9.476;2023-01-25T03:13:02;-2.70;99.90
42479;DHT22;28110;47.080;9.476;2023-01-25T03:15:27;-2.70;99.90
42479;DHT22;28110;47.080;9.476;2023-01-25T03:17:54;-2.70;99.90
42479;DHT22;28110;47.080;9.476;2023-01-25T03:20:20;-2.70;99.90
42479;DHT22;28110;47.080;9.476;2023-01-25T03:22:45;-2.70;99.90
42479;DHT22;28110;47.080;9.476;2023-01-25T03:25:11;-2.70;99.90
42479;DHT22;28110;47.080;9.476;2023-01-25T03:27:36;-2.70;99.90
42479;DHT22;28110;47.080;9.476;2023-01-25T03:30:03;-2.70;99.90
42479;DHT22;28110;47.080;9.476;2023-01-25T03:32:28;-2.70;99.90
42479;DHT22;28110;47.080;9.476;2023-01-25T03:34:54;-2.70;99.90
42479;DHT22;28110;47.080;9.476;2023-01-25T03:37:19;-2.70;99.90
42479;DHT22;28110;47.080;9.476;2023-01-25T03:39:45;-2.70;99.90
42479;DHT22;28110;47.080;9.476;2023-01-25T03:42:10;-2.70;99.90
42479;DHT22;28110;47.080;9.476;2023-01-25T03:44:36;-2.70;99.90
42479;DHT22;28110;47.080;9.476;2023-01-25T03:47:02;-2.70;99.90
42479;DHT22;28110;47.080;9.476;2023-01-25T03:49:27;-2.70;99.90
42479;DHT22;28110;47.080;9.476;2023-01-25T03:51:53;-2.70;99.90
42479;DHT22;28110;47.080;9.476;2023-01-25T03:54:18;-2.70;99.90
42479;DHT22;28110;47.080;9.476;2023-01-25T03:56:44;-2.70;99.90
42479;DHT22;28110;47.080;9.476;2023-01-25T03:59:10;-2.70;99.90
42479;DHT22;28110;47.080;9.476;2023-01-25T04:01:36;-2.70;99.90
42479;DHT22;28110;47.080;9.476;2023-01-25T04:04:02;-2.70;99.90
42479;DHT22;28110;47.080;9.476;2023-01-25T04:06:28;-2.70;99.90
42479;DHT22;28110;47.080;9.476;2023-01-25T04:08:53;-2.70;99.90
42479;DHT22;28110;47.080;9.476;2023-01-25T04:11:19;-2.70;99.90
42479;DHT22;28110;47.080;9.476;2023-01-25T04:13:44;-2.80;99.90
42479;DHT22;28110;47.080;9.476;2023-01-25T04:16:10;-2.70;99.90
42479;DHT22;28110;47.080;9.476;2023-01-25T04:18:37;-2.70;99.90
42479;DHT22;28110;47.080;9.476;2023-01-25T04:21:02;-2.80;99.90
42479;DHT22;28110;47.080;9.476;2023-01-25T04:23:28;-2.80;99.90
42479;DHT22;28110;47.080;9.476;2023-01-25T04:25:58;-2.80;99.90
42479;DHT22;28110;47.080;9.476;2023-01-25T04:28:25;-2.90;99.90
42479;DHT22;28110;47.080;9.476;2023-01-25T04:30:52;-2.90;99.90
42479;DHT22;28110;47.080;9.476;2023-01-25T04:33:18;-2.90;99.90
42479;DHT22;28110;47.080;9.476;2023-01-25T04:35:43;-2.90;99.90
42479;DHT22;28110;47.080;9.476;2023-01-25T04:38:09;-3.00;99.90
42479;DHT22;28110;47.080;9.476;2023-01-25T04:40:35;-3.00;99.90
42479;DHT22;28110;47.080;9.476;2023-01-25T04:43:01;-3.00;99.90
42479;DHT22;28110;47.080;9.476;2023-01-25T04:45:26;-3.00;99.90
42479;DHT22;28110;47.080;9.476;2023-01-25T04:48:03;-3.00;99.90
42479;DHT22;28110;47.080;9.476;2023-01-25T04:50:29;-3.00;99.90
42479;DHT22;28110;47.080;9.476;2023-01-25T04:52:55;-3.00;99.90
42479;DHT22;28110;47.080;9.476;2023-01-25T04:55:20;-3.00;99.90
42479;DHT22;28110;47.080;9.476;2023-01-25T04:57:49;-3.00;99.90
42479;DHT22;28110;47.080;9.476;2023-01-25T05:00:16;-2.90;99.90
42479;DHT22;28110;47.080;9.476;2023-01-25T05:02:42;-3.00;99.90
42479;DHT22;28110;47.080;9.476;2023-01-25T05:05:08;-3.00;99.90
42479;DHT22;28110;47.080;9.476;2023-01-25T05:07:34;-3.00;99.90
42479;DHT22;28110;47.080;9.476;2023-01-25T05:10:00;-3.00;99.90
42479;DHT22;28110;47.080;9.476;2023-01-25T05:12:25;-3.00;99.90
42479;DHT22;28110;47.080;9.476;2023-01-25T05:14:51;-3.00;99.90
42479;DHT22;28110;47.080;9.476;2023-01-25T05:17:16;-3.00;99.90
42479;DHT22;28110;47.080;9.476;2023-01-25T05:19:42;-3.00;99.90
42479;DHT22;28110;47.080;9.476;2023-01-25T05:22:15;-3.00;99.90
42479;DHT22;28110;47.080;9.476;2023-01-25T05:24:41;-3.10;99.90
42479;DHT22;28110;47.080;9.476;2023-01-25T05:27:08;-3.10;99.90
42479;DHT22;28110;47.080;9.476;2023-01-25T05:29:44;-3.10;99.90
42479;DHT22;28110;47.080;9.476;2023-01-25T05:32:28;-3.10;99.90
42479;DHT22;28110;47.080;9.476;2023-01-25T05:34:53;-3.10;99.90
42479;DHT22;28110;47.080;9.476;2023-01-25T05:37:20;-3.10;99.90
42479;DHT22;28110;47.080;9.476;2023-01-25T05:39:46;-3.10;99.90
42479;DHT22;28110;47.080;9.476;2023-01-25T05:42:16;-3.10;99.90
42479;DHT22;28110;47.080;9.476;2023-01-25T05:44:42;-3.10;99.90
42479;DHT22;28110;47.080;9.476;2023-01-25T05:47:11;-3.10;99.90
42479;DHT22;28110;47.080;9.476;2023-01-25T05:49:38;-3.10;99.90
42479;DHT22;28110;47.080;9.476;2023-01-25T05:52:04;-3.20;99.90
42479;DHT22;28110;47.080;9.476;2023-01-25T05:54:29;-3.20;99.90
42479;DHT22;28110;47.080;9.476;2023-01-25T05:56:55;-3.20;99.90
42479;DHT22;28110;47.080;9.476;2023-01-25T05:59:20;-3.20;99.90
42479;DHT22;28110;47.080;9.476;2023-01-25T06:01:46;-3.20;99.90
42479;DHT22;28110;47.080;9.476;2023-01-25T06:04:15;-3.20;99.90
42479;DHT22;28110;47.080;9.476;2023-01-25T06:06:41;-3.30;99.90
42479;DHT22;28110;47.080;9.476;2023-01-25T06:09:06;-3.20;99.90
42479;DHT22;28110;47.080;9.476;2023-01-25T06:11:32;-3.30;99.90
42479;DHT22;28110;47.080;9.476;2023-01-25T06:13:58;-3.20;99.90
42479;DHT22;28110;47.080;9.476;2023-01-25T06:16:23;-3.20;99.90
42479;DHT22;28110;47.080;9.476;2023-01-25T06:18:49;-3.30;99.90
42479;DHT22;28110;47.080;9.476;2023-01-25T06:21:14;-3.20;99.90
42479;DHT22;28110;47.080;9.476;2023-01-25T06:23:40;-3.20;99.90
42479;DHT22;28110;47.080;9.476;2023-01-25T06:26:08;-3.20;99.90
42479;DHT22;28110;47.080;9.476;2023-01-25T06:28:36;-3.20;99.90
42479;DHT22;28110;47.080;9.476;2023-01-25T06:31:07;-3.20;99.90
42479;DHT22;28110;47.080;9.476;2023-01-25T06:33:33;-3.20;99.90
42479;DHT22;28110;47.080;9.476;2023-01-25T06:36:09;-3.20;99.90
42479;DHT22;28110;47.080;9.476;2023-01-25T06:38:35;-3.20;99.90
42479;DHT22;28110;47.080;9.476;2023-01-25T06:41:02;-3.30;99.90
42479;DHT22;28110;47.080;9.476;2023-01-25T06:43:29;-3.30;99.90
42479;DHT22;28110;47.080;9.476;2023-01-25T06:45:59;-3.30;99.90
42479;DHT22;28110;47.080;9.476;2023-01-25T06:48:25;-3.30;99.90
42479;DHT22;28110;47.080;9.476;2023-01-25T06:50:58;-3.30;99.90
42479;DHT22;28110;47.080;9.476;2023-01-25T06:53:26;-3.20;99.90
42479;DHT22;28110;47.080;9.476;2023-01-25T06:55:59;-3.20;99.90
42479;DHT22;28110;47.080;9.476;2023-01-25T06:58:26;-3.20;99.90
42479;DHT22;28110;47.080;9.476;2023-01-25T07:00:52;-3.10;99.90
42479;DHT22;28110;47.080;9.476;2023-01-25T07:03:17;-3.10;99.90
42479;DHT22;28110;47.080;9.476;2023-01-25T07:05:43;-3.10;99.90
42479;DHT22;28110;47.080;9.476;2023-01-25T07:08:08;-3.00;99.90
42479;DHT22;28110;47.080;9.476;2023-01-25T07:10:34;-3.00;99.90
42479;DHT22;28110;47.080;9.476;2023-01-25T07:12:59;-2.90;99.90
42479;DHT22;28110;47.080;9.476;2023-01-25T07:15:25;-2.90;99.90
42479;DHT22;28110;47.080;9.476;2023-01-25T07:17:51;-2.80;99.90
42479;DHT22;28110;47.080;9.476;2023-01-25T07:20:16;-2.80;99.90
42479;DHT22;28110;47.080;9.476;2023-01-25T07:22:42;-2.80;99.90
42479;DHT22;28110;47.080;9.476;2023-01-25T07:25:08;-2.70;99.90
42479;DHT22;28110;47.080;9.476;2023-01-25T07:27:33;-2.70;99.90
42479;DHT22;28110;47.080;9.476;2023-01-25T07:29:59;-2.70;99.90
42479;DHT22;28110;47.080;9.476;2023-01-25T07:32:25;-2.70;99.90
42479;DHT22;28110;47.080;9.476;2023-01-25T07:34:51;-2.60;99.90
42479;DHT22;28110;47.080;9.476;2023-01-25T07:37:16;-2.60;99.90
42479;DHT22;28110;47.080;9.476;2023-01-25T07:39:42;-2.60;99.90
42479;DHT22;28110;47.080;9.476;2023-01-25T07:42:14;-2.60;99.90
42479;DHT22;28110;47.080;9.476;2023-01-25T07:44:40;-2.50;99.90
42479;DHT22;28110;47.080;9.476;2023-01-25T07:47:05;-2.50;99.90
42479;DHT22;28110;47.080;9.476;2023-01-25T07:49:31;-2.50;99.90
42479;DHT22;28110;47.080;9.476;2023-01-25T07:51:56;-2.50;99.90
42479;DHT22;28110;47.080;9.476;2023-01-25T07:54:22;-2.50;99.90
42479;DHT22;28110;47.080;9.476;2023-01-25T07:56:48;-2.40;99.90
42479;DHT22;28110;47.080;9.476;2023-01-25T07:59:14;-2.40;99.90
42479;DHT22;28110;47.080;9.476;2023-01-25T08:01:39;-2.30;99.90
42479;DHT22;28110;47.080;9.476;2023-01-25T08:04:05;-2.30;99.90
42479;DHT22;28110;47.080;9.476;2023-01-25T08:06:33;-2.30;99.90
42479;DHT22;28110;47.080;9.476;2023-01-25T08:09:02;-2.30;99.90
42479;DHT22;28110;47.080;9.476;2023-01-25T08:11:29;-2.20;99.90
42479;DHT22;28110;47.080;9.476;2023-01-25T08:13:55;-2.10;99.90
42479;DHT22;28110;47.080;9.476;2023-01-25T08:16:23;-2.00;99.90
42479;DHT22;28110;47.080;9.476;2023-01-25T08:18:55;-2.00;99.90
42479;DHT22;28110;47.080;9.476;2023-01-25T08:21:21;-1.90;99.90
42479;DHT22;28110;47.080;9.476;2023-01-25T08:23:49;-1.80;99.90
42479;DHT22;28110;47.080;9.476;2023-01-25T08:26:15;-1.70;99.90
42479;DHT22;28110;47.080;9.476;2023-01-25T08:28:41;-1.70;99.90
42479;DHT22;28110;47.080;9.476;2023-01-25T08:31:18;-1.70;99.90
42479;DHT22;28110;47.080;9.476;2023-01-25T08:33:44;-1.70;99.90
42479;DHT22;28110;47.080;9.476;2023-01-25T08:36:11;-1.80;99.90
42479;DHT22;28110;47.080;9.476;2023-01-25T08:38:37;-1.70;99.90
42479;DHT22;28110;47.080;9.476;2023-01-25T08:41:14;-1.70;99.90
42479;DHT22;28110;47.080;9.476;2023-01-25T08:43:41;-1.60;99.90
42479;DHT22;28110;47.080;9.476;2023-01-25T08:46:07;-1.60;99.90
42479;DHT22;28110;47.080;9.476;2023-01-25T08:48:33;-1.50;99.90
42479;DHT22;28110;47.080;9.476;2023-01-25T08:50:59;-1.50;99.90
42479;DHT22;28110;47.080;9.476;2023-01-25T08:53:29;-1.50;99.90
42479;DHT22;28110;47.080;9.476;2023-01-25T08:55:55;-1.40;99.90
42479;DHT22;28110;47.080;9.476;2023-01-25T08:58:21;-1.40;99.90
42479;DHT22;28110;47.080;9.476;2023-01-25T09:00:47;-1.30;99.90
42479;DHT22;28110;47.080;9.476;2023-01-25T09:03:14;-1.30;99.90
42479;DHT22;28110;47.080;9.476;2023-01-25T09:05:40;-1.20;99.90
42479;DHT22;28110;47.080;9.476;2023-01-25T09:08:07;-1.10;99.90
42479;DHT22;28110;47.080;9.476;2023-01-25T09:10:34;-1.00;99.90
42479;DHT22;28110;47.080;9.476;2023-01-25T09:12:59;-0.90;99.90
42479;DHT22;28110;47.080;9.476;2023-01-25T09:15:25;-0.80;99.90
42479;DHT22;28110;47.080;9.476;2023-01-25T09:17:55;-0.80;99.90
42479;DHT22;28110;47.080;9.476;2023-01-25T09:20:22;-0.70;99.90
42479;DHT22;28110;47.080;9.476;2023-01-25T09:22:47;-0.60;99.90
42479;DHT22;28110;47.080;9.476;2023-01-25T09:25:13;-0.50;99.90
42479;DHT22;28110;47.080;9.476;2023-01-25T09:27:39;-0.40;99.90
42479;DHT22;28110;47.080;9.476;2023-01-25T09:30:06;-0.30;99.90
42479;DHT22;28110;47.080;9.476;2023-01-25T09:32:32;-0.30;99.90
42479;DHT22;28110;47.080;9.476;2023-01-25T09:34:58;-0.20;99.90
42479;DHT22;28110;47.080;9.476;2023-01-25T09:37:23;-0.10;99.90
42479;DHT22;28110;47.080;9.476;2023-01-25T09:39:49;0.00;99.90
42479;DHT22;28110;47.080;9.476;2023-01-25T09:47:36;0.00;99.90
42479;DHT22;28110;47.080;9.476;2023-01-25T09:50:17;0.10;99.90
42479;DHT22;28110;47.080;9.476;2023-01-25T09:55:26;0.20;99.90
42479;DHT22;28110;47.080;9.476;2023-01-25T09:57:53;0.20;99.90
42479;DHT22;28110;47.080;9.476;2023-01-25T10:00:25;0.30;99.90
42479;DHT22;28110;47.080;9.476;2023-01-25T10:05:49;0.40;99.90
42479;DHT22;28110;47.080;9.476;2023-01-25T10:11:04;0.40;99.90
42479;DHT22;28110;47.080;9.476;2023-01-25T10:13:32;0.40;99.90
42479;DHT22;28110;47.080;9.476;2023-01-25T10:16:02;0.50;99.90
42479;DHT22;28110;47.080;9.476;2023-01-25T10:18:55;0.50;99.90
42479;DHT22;28110;47.080;9.476;2023-01-25T10:26:55;0.70;99.90
42479;DHT22;28110;47.080;9.476;2023-01-25T10:29:30;0.80;99.90
42479;DHT22;28110;47.080;9.476;2023-01-25T10:34:49;0.90;99.90
42479;DHT22;28110;47.080;9.476;2023-01-25T10:37:20;0.90;99.90
42479;DHT22;28110;47.080;9.476;2023-01-25T10:42:40;1.00;99.90
42479;DHT22;28110;47.080;9.476;2023-01-25T10:45:13;1.10;99.90
42479;DHT22;28110;47.080;9.476;2023-01-25T10:47:41;1.10;99.90
42479;DHT22;28110;47.080;9.476;2023-01-25T10:50:08;1.10;99.90
42479;DHT22;28110;47.080;9.476;2023-01-25T10:52:34;1.20;99.90
42479;DHT22;28110;47.080;9.476;2023-01-25T10:55:19;1.20;99.90
42479;DHT22;28110;47.080;9.476;2023-01-25T10:57:53;1.20;99.90
42479;DHT22;28110;47.080;9.476;2023-01-25T11:00:25;1.30;99.90
42479;DHT22;28110;47.080;9.476;2023-01-25T11:02:52;1.30;99.90
42479;DHT22;28110;47.080;9.476;2023-01-25T11:05:25;1.30;99.90
42479;DHT22;28110;47.080;9.476;2023-01-25T11:07:51;1.30;99.90
42479;DHT22;28110;47.080;9.476;2023-01-25T11:10:35;1.30;99.90
42479;DHT22;28110;47.080;9.476;2023-01-25T11:16:28;1.40;99.90
42479;DHT22;28110;47.080;9.476;2023-01-25T11:18:32;1.40;99.90
42479;DHT22;28110;47.080;9.476;2023-01-25T11:21:24;1.40;99.90
42479;DHT22;28110;47.080;9.476;2023-01-25T11:26:35;1.40;99.90
42479;DHT22;28110;47.080;9.476;2023-01-25T11:29:18;1.50;99.90
42479;DHT22;28110;47.080;9.476;2023-01-25T11:31:46;1.50;99.90
42479;DHT22;28110;47.080;9.476;2023-01-25T11:34:19;1.50;99.90
42479;DHT22;28110;47.080;9.476;2023-01-25T11:45:23;1.60;99.90
42479;DHT22;28110;47.080;9.476;2023-01-25T12:04:55;1.60;99.90
42479;DHT22;28110;47.080;9.476;2023-01-25T12:07:36;1.70;99.90
42479;DHT22;28110;47.080;9.476;2023-01-25T12:10:22;1.60;99.90
42479;DHT22;28110;47.080;9.476;2023-01-25T12:18:24;1.70;99.90
42479;DHT22;28110;47.080;9.476;2023-01-25T12:21:12;1.70;99.90
42479;DHT22;28110;47.080;9.476;2023-01-25T12:29:17;1.60;99.90
42479;DHT22;28110;47.080;9.476;2023-01-25T12:32:16;1.70;99.90
42479;DHT22;28110;47.080;9.476;2023-01-25T12:35:38;1.70;99.90
42479;DHT22;28110;47.080;9.476;2023-01-25T12:37:40;1.70;99.90
42479;DHT22;28110;47.080;9.476;2023-01-25T12:40:16;1.70;99.90
42479;DHT22;28110;47.080;9.476;2023-01-25T12:42:52;1.60;99.90
42479;DHT22;28110;47.080;9.476;2023-01-25T12:45:24;1.60;99.90
42479;DHT22;28110;47.080;9.476;2023-01-25T12:50:29;1.60;99.90
42479;DHT22;28110;47.080;9.476;2023-01-25T12:55:26;1.70;99.90
42479;DHT22;28110;47.080;9.476;2023-01-25T12:58:12;1.70;99.90
42479;DHT22;28110;47.080;9.476;2023-01-25T13:00:41;1.80;99.90
42479;DHT22;28110;47.080;9.476;2023-01-25T13:03:30;1.80;99.90
42479;DHT22;28110;47.080;9.476;2023-01-25T13:06:15;1.70;99.90
42479;DHT22;28110;47.080;9.476;2023-01-25T13:11:26;1.70;99.90
42479;DHT22;28110;47.080;9.476;2023-01-25T13:19:21;1.80;99.90
42479;DHT22;28110;47.080;9.476;2023-01-25T13:21:49;1.90;99.90
42479;DHT22;28110;47.080;9.476;2023-01-25T13:24:18;1.90;99.90
42479;DHT22;28110;47.080;9.476;2023-01-25T13:26:48;2.00;99.90
42479;DHT22;28110;47.080;9.476;2023-01-25T13:32:00;1.90;99.90
42479;DHT22;28110;47.080;9.476;2023-01-25T13:37:21;1.90;99.90
42479;DHT22;28110;47.080;9.476;2023-01-25T13:39:51;1.90;99.90
42479;DHT22;28110;47.080;9.476;2023-01-25T13:42:32;1.80;99.90
42479;DHT22;28110;47.080;9.476;2023-01-25T13:45:10;1.80;99.90
42479;DHT22;28110;47.080;9.476;2023-01-25T13:47:38;1.80;99.90
42479;DHT22;28110;47.080;9.476;2023-01-25T13:50:24;1.80;99.90
42479;DHT22;28110;47.080;9.476;2023-01-25T13:53:26;1.70;99.90
42479;DHT22;28110;47.080;9.476;2023-01-25T13:55:57;1.80;99.90
42479;DHT22;28110;47.080;9.476;2023-01-25T13:58:27;1.70;99.90
42479;DHT22;28110;47.080;9.476;2023-01-25T14:00:59;1.60;99.90
42479;DHT22;28110;47.080;9.476;2023-01-25T14:03:27;1.60;99.90
42479;DHT22;28110;47.080;9.476;2023-01-25T14:05:55;1.70;99.90
42479;DHT22;28110;47.080;9.476;2023-01-25T14:08:23;1.70;99.90
42479;DHT22;28110;47.080;9.476;2023-01-25T14:10:50;1.70;99.90
42479;DHT22;28110;47.080;9.476;2023-01-25T14:13:17;1.60;99.90
42479;DHT22;28110;47.080;9.476;2023-01-25T14:16:00;1.60;99.90
42479;DHT22;28110;47.080;9.476;2023-01-25T14:18:33;1.60;99.90
42479;DHT22;28110;47.080;9.476;2023-01-25T14:21:17;1.60;99.90
42479;DHT22;28110;47.080;9.476;2023-01-25T14:23:44;1.60;99.90
42479;DHT22;28110;47.080;9.476;2023-01-25T14:26:21;1.70;99.90
42479;DHT22;28110;47.080;9.476;2023-01-25T14:28:53;1.70;99.90
42479;DHT22;28110;47.080;9.476;2023-01-25T14:31:27;1.70;99.90
42479;DHT22;28110;47.080;9.476;2023-01-25T14:33:53;1.70;99.90
42479;DHT22;28110;47.080;9.476;2023-01-25T14:36:25;1.70;99.90
42479;DHT22;28110;47.080;9.476;2023-01-25T14:38:51;1.70;99.90
42479;DHT22;28110;47.080;9.476;2023-01-25T14:41:30;1.70;99.90
42479;DHT22;28110;47.080;9.476;2023-01-25T14:44:05;1.60;99.90
42479;DHT22;28110;47.080;9.476;2023-01-25T14:46:35;1.70;99.90
42479;DHT22;28110;47.080;9.476;2023-01-25T14:51:45;1.70;99.90
42479;DHT22;28110;47.080;9.476;2023-01-25T14:54:16;1.70;99.90
42479;DHT22;28110;47.080;9.476;2023-01-25T14:56:47;1.70;99.90
42479;DHT22;28110;47.080;9.476;2023-01-25T14:59:23;1.60;99.90
42479;DHT22;28110;47.080;9.476;2023-01-25T15:01:51;1.60;99.90
42479;DHT22;28110;47.080;9.476;2023-01-25T15:04:19;1.60;99.90
42479;DHT22;28110;47.080;9.476;2023-01-25T15:06:46;1.60;99.90
42479;DHT22;28110;47.080;9.476;2023-01-25T15:09:32;1.60;99.90
42479;DHT22;28110;47.080;9.476;2023-01-25T15:12:22;1.60;99.90
42479;DHT22;28110;47.080;9.476;2023-01-25T15:14:52;1.70;99.90
42479;DHT22;28110;47.080;9.476;2023-01-25T15:20:04;1.70;99.90
42479;DHT22;28110;47.080;9.476;2023-01-25T15:22:29;1.60;99.90
42479;DHT22;28110;47.080;9.476;2023-01-25T15:24:56;1.60;99.90
42479;DHT22;28110;47.080;9.476;2023-01-25T15:27:21;1.60;99.90
42479;DHT22;28110;47.080;9.476;2023-01-25T15:29:47;1.60;99.90
42479;DHT22;28110;47.080;9.476;2023-01-25T15:32:18;1.60;99.90
42479;DHT22;28110;47.080;9.476;2023-01-25T15:34:45;1.60;99.90
42479;DHT22;28110;47.080;9.476;2023-01-25T15:37:11;1.60;99.90
42479;DHT22;28110;47.080;9.476;2023-01-25T15:39:36;1.60;99.90
42479;DHT22;28110;47.080;9.476;2023-01-25T15:42:03;1.60;99.90
42479;DHT22;28110;47.080;9.476;2023-01-25T15:44:29;1.50;99.90
42479;DHT22;28110;47.080;9.476;2023-01-25T15:46:54;1.50;99.90
42479;DHT22;28110;47.080;9.476;2023-01-25T15:49:24;1.50;99.90
42479;DHT22;28110;47.080;9.476;2023-01-25T15:51:51;1.50;99.90
42479;DHT22;28110;47.080;9.476;2023-01-25T15:54:16;1.40;99.90
42479;DHT22;28110;47.080;9.476;2023-01-25T15:56:42;1.40;99.90
42479;DHT22;28110;47.080;9.476;2023-01-25T15:59:14;1.40;99.90
42479;DHT22;28110;47.080;9.476;2023-01-25T16:01:41;1.40;99.90
42479;DHT22;28110;47.080;9.476;2023-01-25T16:04:09;1.40;99.90
42479;DHT22;28110;47.080;9.476;2023-01-25T16:09:16;1.40;99.90
42479;DHT22;28110;47.080;9.476;2023-01-25T16:11:43;1.50;99.90
42479;DHT22;28110;47.080;9.476;2023-01-25T16:14:10;1.40;99.90
42479;DHT22;28110;47.080;9.476;2023-01-25T16:16:49;1.40;99.90
42479;DHT22;28110;47.080;9.476;2023-01-25T16:19:18;1.50;99.90
42479;DHT22;28110;47.080;9.476;2023-01-25T16:21:44;1.40;99.90
42479;DHT22;28110;47.080;9.476;2023-01-25T16:24:10;1.40;99.90
42479;DHT22;28110;47.080;9.476;2023-01-25T16:26:38;1.40;99.90
42479;DHT22;28110;47.080;9.476;2023-01-25T16:29:05;1.40;99.90
42479;DHT22;28110;47.080;9.476;2023-01-25T16:31:30;1.40;99.90
42479;DHT22;28110;47.080;9.476;2023-01-25T16:33:56;1.40;99.90
42479;DHT22;28110;47.080;9.476;2023-01-25T16:36:23;1.40;99.90
42479;DHT22;28110;47.080;9.476;2023-01-25T16:38:49;1.40;99.90
42479;DHT22;28110;47.080;9.476;2023-01-25T16:41:15;1.40;99.90
42479;DHT22;28110;47.080;9.476;2023-01-25T16:43:45;1.40;99.90
42479;DHT22;28110;47.080;9.476;2023-01-25T16:46:17;1.40;99.90
42479;DHT22;28110;47.080;9.476;2023-01-25T16:48:43;1.30;99.90
42479;DHT22;28110;47.080;9.476;2023-01-25T16:51:15;1.30;99.90
42479;DHT22;28110;47.080;9.476;2023-01-25T16:53:41;1.30;99.90
42479;DHT22;28110;47.080;9.476;2023-01-25T16:56:15;1.30;99.90
42479;DHT22;28110;47.080;9.476;2023-01-25T16:58:41;1.30;99.90
42479;DHT22;28110;47.080;9.476;2023-01-25T17:01:08;1.30;99.90
42479;DHT22;28110;47.080;9.476;2023-01-25T17:03:34;1.20;99.90
42479;DHT22;28110;47.080;9.476;2023-01-25T17:06:00;1.30;99.90
42479;DHT22;28110;47.080;9.476;2023-01-25T17:08:26;1.30;99.90
42479;DHT22;28110;47.080;9.476;2023-01-25T17:10:51;1.30;99.90
42479;DHT22;28110;47.080;9.476;2023-01-25T17:13:22;1.30;99.90
42479;DHT22;28110;47.080;9.476;2023-01-25T17:15:48;1.30;99.90
42479;DHT22;28110;47.080;9.476;2023-01-25T17:18:13;1.30;99.90
42479;DHT22;28110;47.080;9.476;2023-01-25T17:20:39;1.20;99.90
42479;DHT22;28110;47.080;9.476;2023-01-25T17:23:04;1.30;99.90
42479;DHT22;28110;47.080;9.476;2023-01-25T17:25:30;1.30;99.90
42479;DHT22;28110;47.080;9.476;2023-01-25T17:28:00;1.30;99.90
42479;DHT22;28110;47.080;9.476;2023-01-25T17:30:25;1.20;99.90
42479;DHT22;28110;47.080;9.476;2023-01-25T17:32:51;1.30;99.90
42479;DHT22;28110;47.080;9.476;2023-01-25T17:35:16;1.20;99.90